Terminal Aerodrome Forecast
Issued by NWS Blacksburg, VA

Current Version | Previous Version | Graphics & Text | Print | Product List | Glossary On
Versions: 1 2 3 4 5 6 7 8 9 10 11 12 13 14 15 16 17 18 19 20 21 22 23 24 25 26 27 28 29 30 31 32 33 34 35 36 37 38 39 40 41
000
FTUS41 KRNK 202216 AAA
TAFBLF
TAF AMD
KBLF 202216Z 2022/2118 34004KT P6SM VCSH SCT025 BKN040 OVC060
     FM210000 13003KT P6SM VCSH OVC025
     FM210600 13003KT P6SM OVC025
     FM211400 14005KT P6SM SCT035 BKN050=

USA.gov is the U.S. government's official web portal to all federal, state and local government web resources and services.